sensor_id;sensor_type;location;lat;lon;timestamp;pressure;altitude;pressure_sealevel;temperature;humidity
70833;BME280;58452;59.418;17.962;2022-10-16T00:00:15;100357.53;;;12.93;88.28
70833;BME280;58452;59.418;17.962;2022-10-16T00:02:41;100352.94;;;13.03;88.10
70833;BME280;58452;59.418;17.962;2022-10-16T00:05:06;100345.03;;;12.96;88.26
70833;BME280;58452;59.418;17.962;2022-10-16T00:07:31;100346.81;;;13.04;88.21
70833;BME280;58452;59.418;17.962;2022-10-16T00:09:57;100345.84;;;13.13;87.60
70833;BME280;58452;59.418;17.962;2022-10-16T00:12:22;100340.97;;;13.10;87.62
70833;BME280;58452;59.418;17.962;2022-10-16T00:14:48;100342.59;;;13.11;87.45
70833;BME280;58452;59.418;17.962;2022-10-16T00:17:13;100333.84;;;13.12;87.37
70833;BME280;58452;59.418;17.962;2022-10-16T00:19:38;100341.63;;;13.04;87.23
70833;BME280;58452;59.418;17.962;2022-10-16T00:22:04;100338.69;;;13.07;87.59
70833;BME280;58452;59.418;17.962;2022-10-16T00:24:29;100337.88;;;13.14;86.99
70833;BME280;58452;59.418;17.962;2022-10-16T00:26:54;100340.00;;;13.19;86.76
70833;BME280;58452;59.418;17.962;2022-10-16T00:29:20;100327.50;;;13.23;86.25
70833;BME280;58452;59.418;17.962;2022-10-16T00:31:45;100323.75;;;13.25;86.37
70833;BME280;58452;59.418;17.962;2022-10-16T00:34:10;100328.69;;;13.12;86.39
70833;BME280;58452;59.418;17.962;2022-10-16T00:36:36;100324.78;;;13.16;85.88
70833;BME280;58452;59.418;17.962;2022-10-16T00:39:02;100330.91;;;13.23;85.98
70833;BME280;58452;59.418;17.962;2022-10-16T00:41:28;100323.81;;;13.17;85.62
70833;BME280;58452;59.418;17.962;2022-10-16T00:44:01;100325.75;;;13.15;85.50
70833;BME280;58452;59.418;17.962;2022-10-16T00:49:07;100323.38;;;12.89;85.67
70833;BME280;58452;59.418;17.962;2022-10-16T00:51:39;100318.69;;;12.85;86.25
70833;BME280;58452;59.418;17.962;2022-10-16T00:54:12;100319.69;;;12.84;85.96
70833;BME280;58452;59.418;17.962;2022-10-16T00:56:38;100318.88;;;12.83;85.72
70833;BME280;58452;59.418;17.962;2022-10-16T00:59:07;100324.22;;;12.73;86.22
70833;BME280;58452;59.418;17.962;2022-10-16T01:01:35;100324.69;;;12.85;85.79
70833;BME280;58452;59.418;17.962;2022-10-16T01:04:00;100322.44;;;12.82;85.60
70833;BME280;58452;59.418;17.962;2022-10-16T01:06:46;100318.69;;;12.85;85.87
70833;BME280;58452;59.418;17.962;2022-10-16T01:09:22;100313.97;;;12.88;85.26
70833;BME280;58452;59.418;17.962;2022-10-16T01:14:57;100318.88;;;12.83;85.40
70833;BME280;58452;59.418;17.962;2022-10-16T01:17:45;100315.16;;;12.78;85.64
70833;BME280;58452;59.418;17.962;2022-10-16T01:20:30;100311.59;;;12.79;85.33
70833;BME280;58452;59.418;17.962;2022-10-16T01:28:18;100319.03;;;12.73;85.69
70833;BME280;58452;59.418;17.962;2022-10-16T01:30:46;100323.91;;;12.68;85.97
70833;BME280;58452;59.418;17.962;2022-10-16T01:33:17;100326.50;;;12.68;85.78
70833;BME280;58452;59.418;17.962;2022-10-16T01:35:52;100339.31;;;12.62;86.50
70833;BME280;58452;59.418;17.962;2022-10-16T01:38:28;100343.19;;;12.50;87.03
70833;BME280;58452;59.418;17.962;2022-10-16T01:41:00;100328.81;;;12.47;87.08
70833;BME280;58452;59.418;17.962;2022-10-16T01:43:31;100324.28;;;12.49;87.13
70833;BME280;58452;59.418;17.962;2022-10-16T01:45:59;100332.22;;;12.40;87.40
70833;BME280;58452;59.418;17.962;2022-10-16T01:48:27;100326.03;;;12.41;87.54
70833;BME280;58452;59.418;17.962;2022-10-16T01:51:01;100334.63;;;12.33;87.72
70833;BME280;58452;59.418;17.962;2022-10-16T01:53:29;100338.34;;;12.31;87.90
70833;BME280;58452;59.418;17.962;2022-10-16T01:55:55;100335.63;;;12.32;87.87
70833;BME280;58452;59.418;17.962;2022-10-16T01:58:22;100325.25;;;12.24;88.27
70833;BME280;58452;59.418;17.962;2022-10-16T02:00:50;100317.00;;;12.20;88.36
70833;BME280;58452;59.418;17.962;2022-10-16T02:03:18;100328.16;;;12.29;88.44
70833;BME280;58452;59.418;17.962;2022-10-16T02:05:50;100315.22;;;12.29;88.21
70833;BME280;58452;59.418;17.962;2022-10-16T02:08:16;100309.41;;;12.35;88.15
70833;BME280;58452;59.418;17.962;2022-10-16T02:10:42;100316.22;;;12.36;87.98
70833;BME280;58452;59.418;17.962;2022-10-16T02:13:15;100313.78;;;12.43;87.59
70833;BME280;58452;59.418;17.962;2022-10-16T02:15:42;100314.25;;;12.46;87.58
70833;BME280;58452;59.418;17.962;2022-10-16T02:18:08;100306.16;;;12.49;87.37
70833;BME280;58452;59.418;17.962;2022-10-16T02:20:59;100308.41;;;12.44;87.27
70833;BME280;58452;59.418;17.962;2022-10-16T02:23:47;100309.41;;;12.35;87.70
70833;BME280;58452;59.418;17.962;2022-10-16T02:26:17;100306.81;;;12.43;87.37
70833;BME280;58452;59.418;17.962;2022-10-16T02:28:49;100310.56;;;12.33;87.66
70833;BME280;58452;59.418;17.962;2022-10-16T02:31:23;100312.97;;;12.34;87.59
70833;BME280;58452;59.418;17.962;2022-10-16T02:33:52;100308.59;;;12.35;87.64
70833;BME280;58452;59.418;17.962;2022-10-16T02:36:19;100313.59;;;12.44;87.50
70833;BME280;58452;59.418;17.962;2022-10-16T02:38:44;100326.56;;;12.36;87.73
70833;BME280;58452;59.418;17.962;2022-10-16T02:41:11;100328.81;;;12.47;87.30
70833;BME280;58452;59.418;17.962;2022-10-16T02:43:39;100324.28;;;12.49;86.96
70833;BME280;58452;59.418;17.962;2022-10-16T02:46:04;100312.63;;;12.45;86.89
70833;BME280;58452;59.418;17.962;2022-10-16T02:48:30;100295.66;;;12.35;87.24
70833;BME280;58452;59.418;17.962;2022-10-16T02:50:55;100298.06;;;12.44;87.02
70833;BME280;58452;59.418;17.962;2022-10-16T02:53:22;100291.59;;;12.40;86.50
70833;BME280;58452;59.418;17.962;2022-10-16T02:55:47;100283.00;;;12.48;86.20
70833;BME280;58452;59.418;17.962;2022-10-16T02:58:13;100284.28;;;12.52;86.12
70833;BME280;58452;59.418;17.962;2022-10-16T03:00:38;100285.78;;;12.46;86.00
70833;BME280;58452;59.418;17.962;2022-10-16T03:03:03;100285.44;;;12.49;85.99
70833;BME280;58452;59.418;17.962;2022-10-16T03:05:29;100279.94;;;12.52;86.17
70833;BME280;58452;59.418;17.962;2022-10-16T03:07:54;100278.47;;;12.58;85.76
70833;BME280;58452;59.418;17.962;2022-10-16T03:10:19;100284.00;;;12.39;86.12
70833;BME280;58452;59.418;17.962;2022-10-16T03:12:45;100294.22;;;12.32;87.23
70833;BME280;58452;59.418;17.962;2022-10-16T03:15:10;100284.69;;;12.33;87.01
70833;BME280;58452;59.418;17.962;2022-10-16T03:17:36;100285.31;;;12.43;86.89
70833;BME280;58452;59.418;17.962;2022-10-16T03:20:02;100285.28;;;12.51;86.76
70833;BME280;58452;59.418;17.962;2022-10-16T03:22:27;100272.16;;;12.52;86.45
70833;BME280;58452;59.418;17.962;2022-10-16T03:24:53;100265.06;;;12.54;86.63
70833;BME280;58452;59.418;17.962;2022-10-16T03:27:19;100260.19;;;12.59;86.36
70833;BME280;58452;59.418;17.962;2022-10-16T03:29:44;100276.03;;;12.64;85.96
70833;BME280;58452;59.418;17.962;2022-10-16T03:32:09;100274.72;;;12.68;85.76
70833;BME280;58452;59.418;17.962;2022-10-16T03:34:35;100269.69;;;12.75;85.81
70833;BME280;58452;59.418;17.962;2022-10-16T03:37:00;100279.56;;;12.71;85.37
70833;BME280;58452;59.418;17.962;2022-10-16T03:39:26;100274.25;;;12.65;85.58
70833;BME280;58452;59.418;17.962;2022-10-16T03:41:52;100270.66;;;12.66;85.56
70833;BME280;58452;59.418;17.962;2022-10-16T03:44:17;100262.00;;;12.43;86.42
70833;BME280;58452;59.418;17.962;2022-10-16T03:46:43;100260.38;;;12.50;85.93
70833;BME280;58452;59.418;17.962;2022-10-16T03:49:08;100259.22;;;12.52;85.94
70833;BME280;58452;59.418;17.962;2022-10-16T03:51:33;100267.94;;;12.51;86.31
70833;BME280;58452;59.418;17.962;2022-10-16T03:53:59;100266.03;;;12.53;86.00
70833;BME280;58452;59.418;17.962;2022-10-16T03:56:24;100255.34;;;12.56;85.72
70833;BME280;58452;59.418;17.962;2022-10-16T03:58:49;100267.00;;;12.52;85.21
70833;BME280;58452;59.418;17.962;2022-10-16T04:01:15;100265.69;;;12.48;85.54
70833;BME280;58452;59.418;17.962;2022-10-16T04:03:40;100266.34;;;12.50;85.54
70833;BME280;58452;59.418;17.962;2022-10-16T04:06:06;100257.44;;;12.61;85.28
70833;BME280;58452;59.418;17.962;2022-10-16T04:08:31;100251.09;;;12.63;85.17
70833;BME280;58452;59.418;17.962;2022-10-16T04:11:00;100252.72;;;12.64;84.79
70833;BME280;58452;59.418;17.962;2022-10-16T04:13:25;100249.47;;;12.62;84.54
70833;BME280;58452;59.418;17.962;2022-10-16T04:15:51;100260.84;;;12.53;84.53
70833;BME280;58452;59.418;17.962;2022-10-16T04:18:16;100256.03;;;12.34;85.55
70833;BME280;58452;59.418;17.962;2022-10-16T04:20:41;100254.56;;;12.40;85.46
70833;BME280;58452;59.418;17.962;2022-10-16T04:23:07;100263.78;;;12.42;85.37
70833;BME280;58452;59.418;17.962;2022-10-16T04:25:32;100255.22;;;12.42;85.10
70833;BME280;58452;59.418;17.962;2022-10-16T04:27:57;100243.56;;;12.30;85.26
70833;BME280;58452;59.418;17.962;2022-10-16T04:30:23;100266.53;;;12.41;85.29
70833;BME280;58452;59.418;17.962;2022-10-16T04:32:52;100273.16;;;12.43;84.97
70833;BME280;58452;59.418;17.962;2022-10-16T04:35:19;100272.84;;;12.46;84.70
70833;BME280;58452;59.418;17.962;2022-10-16T04:37:45;100284.81;;;12.39;84.84
70833;BME280;58452;59.418;17.962;2022-10-16T04:40:10;100281.56;;;12.37;84.89
70833;BME280;58452;59.418;17.962;2022-10-16T04:42:36;100270.25;;;12.38;84.69
70833;BME280;58452;59.418;17.962;2022-10-16T04:45:02;100267.84;;;12.20;85.36
70833;BME280;58452;59.418;17.962;2022-10-16T04:47:28;100269.63;;;12.20;85.50
70833;BME280;58452;59.418;17.962;2022-10-16T04:49:53;100260.88;;;12.29;85.39
70833;BME280;58452;59.418;17.962;2022-10-16T04:52:19;100282.25;;;12.15;85.54
70833;BME280;58452;59.418;17.962;2022-10-16T04:54:46;100278.38;;;12.03;86.09
70833;BME280;58452;59.418;17.962;2022-10-16T04:57:12;100277.41;;;12.12;86.22
70833;BME280;58452;59.418;17.962;2022-10-16T04:59:37;100272.38;;;12.18;85.46
70833;BME280;58452;59.418;17.962;2022-10-16T05:02:03;100274.81;;;12.20;85.33
70833;BME280;58452;59.418;17.962;2022-10-16T05:04:28;100277.72;;;12.09;86.18
70833;BME280;58452;59.418;17.962;2022-10-16T05:06:54;100271.59;;;12.02;86.49
70833;BME280;58452;59.418;17.962;2022-10-16T05:09:19;100276.09;;;12.08;86.36
70833;BME280;58452;59.418;17.962;2022-10-16T05:11:44;100269.00;;;12.10;85.97
70833;BME280;58452;59.418;17.962;2022-10-16T05:14:10;100278.34;;;12.19;85.59
70833;BME280;58452;59.418;17.962;2022-10-16T05:16:35;100277.88;;;12.07;85.65
70833;BME280;58452;59.418;17.962;2022-10-16T05:19:00;100274.19;;;12.10;86.27
70833;BME280;58452;59.418;17.962;2022-10-16T05:21:26;100275.13;;;12.17;85.74
70833;BME280;58452;59.418;17.962;2022-10-16T05:23:53;100275.94;;;12.17;86.03
70833;BME280;58452;59.418;17.962;2022-10-16T05:26:18;100269.47;;;12.13;86.19
70833;BME280;58452;59.418;17.962;2022-10-16T05:28:43;100271.59;;;12.10;86.16
70833;BME280;58452;59.418;17.962;2022-10-16T05:31:09;100265.44;;;12.11;86.50
70833;BME280;58452;59.418;17.962;2022-10-16T05:33:35;100261.88;;;12.04;86.75
70833;BME280;58452;59.418;17.962;2022-10-16T05:36:02;100263.03;;;12.09;86.44
70833;BME280;58452;59.418;17.962;2022-10-16T05:38:28;100269.97;;;12.01;86.59
70833;BME280;58452;59.418;17.962;2022-10-16T05:40:53;100261.41;;;11.92;87.26
70833;BME280;58452;59.418;17.962;2022-10-16T05:43:19;100274.19;;;12.10;86.95
70833;BME280;58452;59.418;17.962;2022-10-16T05:48:20;100276.09;;;12.08;86.98
70833;BME280;58452;59.418;17.962;2022-10-16T05:50:46;100272.72;;;11.99;87.42
70833;BME280;58452;59.418;17.962;2022-10-16T05:53:11;100283.84;;;12.00;87.56
70833;BME280;58452;59.418;17.962;2022-10-16T05:55:36;100286.44;;;12.00;87.43
70833;BME280;58452;59.418;17.962;2022-10-16T05:58:02;100288.06;;;12.01;87.81
70833;BME280;58452;59.418;17.962;2022-10-16T06:00:27;100285.81;;;11.90;88.08
70833;BME280;58452;59.418;17.962;2022-10-16T06:02:53;100299.38;;;11.84;88.34
70833;BME280;58452;59.418;17.962;2022-10-16T06:05:18;100283.41;;;11.88;88.75
70833;BME280;58452;59.418;17.962;2022-10-16T06:07:44;100298.25;;;11.86;89.03
70833;BME280;58452;59.418;17.962;2022-10-16T06:10:09;100293.91;;;11.95;88.85
70833;BME280;58452;59.418;17.962;2022-10-16T06:12:34;100298.09;;;11.96;88.71
70833;BME280;58452;59.418;17.962;2022-10-16T06:15:00;100295.34;;;11.97;88.60
70833;BME280;58452;59.418;17.962;2022-10-16T06:17:25;100302.13;;;11.98;88.54
70833;BME280;58452;59.418;17.962;2022-10-16T06:19:51;100303.91;;;11.98;88.99
70833;BME280;58452;59.418;17.962;2022-10-16T06:22:16;100313.28;;;11.99;89.27
70833;BME280;58452;59.418;17.962;2022-10-16T06:24:41;100306.84;;;12.03;88.89
70833;BME280;58452;59.418;17.962;2022-10-16T06:27:07;100312.63;;;12.05;89.27
70833;BME280;58452;59.418;17.962;2022-10-16T06:29:32;100312.00;;;11.95;89.39
70833;BME280;58452;59.418;17.962;2022-10-16T06:31:57;100323.66;;;11.99;89.50
70833;BME280;58452;59.418;17.962;2022-10-16T06:34:23;100325.41;;;11.90;90.10
70833;BME280;58452;59.418;17.962;2022-10-16T06:36:48;100330.44;;;11.92;90.23
70833;BME280;58452;59.418;17.962;2022-10-16T06:39:13;100334.94;;;11.98;90.29
70833;BME280;58452;59.418;17.962;2022-10-16T06:41:39;100329.91;;;11.96;90.23
70833;BME280;58452;59.418;17.962;2022-10-16T06:44:07;100333.50;;;11.95;90.59
70833;BME280;58452;59.418;17.962;2022-10-16T06:46:33;100334.28;;;12.04;90.47
70833;BME280;58452;59.418;17.962;2022-10-16T06:48:58;100335.28;;;11.95;90.05
70833;BME280;58452;59.418;17.962;2022-10-16T06:51:24;100335.75;;;11.98;90.48
70833;BME280;58452;59.418;17.962;2022-10-16T06:53:52;100335.13;;;12.12;89.88
70833;BME280;58452;59.418;17.962;2022-10-16T06:56:24;100335.59;;;12.16;89.77
70833;BME280;58452;59.418;17.962;2022-10-16T06:58:50;100336.91;;;12.20;89.93
70833;BME280;58452;59.418;17.962;2022-10-16T07:01:18;100325.91;;;12.10;89.64
70833;BME280;58452;59.418;17.962;2022-10-16T07:03:44;100344.03;;;12.18;89.78
70833;BME280;58452;59.418;17.962;2022-10-16T07:06:13;100336.25;;;12.26;89.53
70833;BME280;58452;59.418;17.962;2022-10-16T07:08:41;100338.84;;;12.18;89.74
70833;BME280;58452;59.418;17.962;2022-10-16T07:11:09;100334.63;;;12.09;90.07
70833;BME280;58452;59.418;17.962;2022-10-16T07:13:39;100335.47;;;12.17;90.04
70833;BME280;58452;59.418;17.962;2022-10-16T07:16:19;100337.25;;;12.25;89.51
70833;BME280;58452;59.418;17.962;2022-10-16T07:18:45;100334.47;;;12.18;89.43
70833;BME280;58452;59.418;17.962;2022-10-16T07:21:19;100349.53;;;12.31;89.53
70833;BME280;58452;59.418;17.962;2022-10-16T07:23:49;100343.34;;;12.40;88.92
70833;BME280;58452;59.418;17.962;2022-10-16T07:26:15;100339.31;;;12.38;88.56
70833;BME280;58452;59.418;17.962;2022-10-16T07:28:42;100343.06;;;12.35;88.58
70833;BME280;58452;59.418;17.962;2022-10-16T07:31:11;100343.84;;;12.44;88.61
70833;BME280;58452;59.418;17.962;2022-10-16T07:33:39;100343.53;;;12.47;88.41
70833;BME280;58452;59.418;17.962;2022-10-16T07:36:05;100350.16;;;12.57;88.14
70833;BME280;58452;59.418;17.962;2022-10-16T07:38:30;100350.31;;;12.64;87.72
70833;BME280;58452;59.418;17.962;2022-10-16T07:41:16;100348.19;;;12.67;87.43
70833;BME280;58452;59.418;17.962;2022-10-16T07:43:50;100345.13;;;12.64;87.42
70833;BME280;58452;59.418;17.962;2022-10-16T07:46:17;100344.66;;;12.44;87.11
70833;BME280;58452;59.418;17.962;2022-10-16T07:48:43;100350.31;;;12.48;87.58
70833;BME280;58452;59.418;17.962;2022-10-16T07:51:12;100348.19;;;12.59;86.69
70833;BME280;58452;59.418;17.962;2022-10-16T07:53:37;100350.16;;;12.57;86.64
70833;BME280;58452;59.418;17.962;2022-10-16T07:56:06;100345.78;;;12.58;86.73
70833;BME280;58452;59.418;17.962;2022-10-16T07:58:33;100349.47;;;12.63;86.05
70833;BME280;58452;59.418;17.962;2022-10-16T08:01:03;100347.72;;;12.56;85.78
70833;BME280;58452;59.418;17.962;2022-10-16T08:03:29;100344.00;;;12.58;84.55
70833;BME280;58452;59.418;17.962;2022-10-16T08:05:56;100349.81;;;12.44;85.32
70833;BME280;58452;59.418;17.962;2022-10-16T08:08:22;100345.31;;;12.38;84.94
70833;BME280;58452;59.418;17.962;2022-10-16T08:10:47;100350.16;;;12.33;85.60
70833;BME280;58452;59.418;17.962;2022-10-16T08:13:13;100353.41;;;12.35;84.63
70833;BME280;58452;59.418;17.962;2022-10-16T08:15:43;100355.34;;;12.25;85.67
70833;BME280;58452;59.418;17.962;2022-10-16T08:18:10;100352.44;;;12.36;85.01
70833;BME280;58452;59.418;17.962;2022-10-16T08:20:35;100358.59;;;12.43;84.87
70833;BME280;58452;59.418;17.962;2022-10-16T08:23:01;100359.88;;;12.39;85.50
70833;BME280;58452;59.418;17.962;2022-10-16T08:25:27;100359.69;;;12.41;84.75
70833;BME280;58452;59.418;17.962;2022-10-16T08:27:53;100356.28;;;12.40;85.11
70833;BME280;58452;59.418;17.962;2022-10-16T08:30:20;100360.19;;;12.44;85.26
70833;BME280;58452;59.418;17.962;2022-10-16T08:32:45;100356.81;;;12.36;84.88
70833;BME280;58452;59.418;17.962;2022-10-16T08:35:12;100354.03;;;12.37;84.54
70833;BME280;58452;59.418;17.962;2022-10-16T08:37:37;100361.94;;;12.52;84.54
70833;BME280;58452;59.418;17.962;2022-10-16T08:40:07;100358.56;;;12.51;83.97
70833;BME280;58452;59.418;17.962;2022-10-16T08:48:46;100368.59;;;12.46;84.39
70833;BME280;58452;59.418;17.962;2022-10-16T08:51:22;100371.34;;;12.61;84.47
70833;BME280;58452;59.418;17.962;2022-10-16T08:53:52;100371.16;;;12.70;83.59
70833;BME280;58452;59.418;17.962;2022-10-16T08:56:19;100374.91;;;12.60;83.81
70833;BME280;58452;59.418;17.962;2022-10-16T08:58:46;100375.06;;;12.50;84.50
70833;BME280;58452;59.418;17.962;2022-10-16T09:01:14;100375.06;;;12.50;84.80
70833;BME280;58452;59.418;17.962;2022-10-16T09:06:41;100377.34;;;12.61;83.87
70833;BME280;58452;59.418;17.962;2022-10-16T09:09:57;100382.81;;;12.66;83.25
70833;BME280;58452;59.418;17.962;2022-10-16T09:12:36;100379.59;;;12.64;83.26
70833;BME280;58452;59.418;17.962;2022-10-16T09:17:40;100380.59;;;12.47;83.08
70833;BME280;58452;59.418;17.962;2022-10-16T09:23:10;100377.34;;;12.61;82.91
70833;BME280;58452;59.418;17.962;2022-10-16T09:25:39;100380.69;;;12.70;82.79
70833;BME280;58452;59.418;17.962;2022-10-16T09:28:07;100366.31;;;12.67;82.72
70833;BME280;58452;59.418;17.962;2022-10-16T09:30:33;100372.78;;;12.71;82.04
70833;BME280;58452;59.418;17.962;2022-10-16T09:32:59;100371.78;;;12.81;82.30
70833;BME280;58452;59.418;17.962;2022-10-16T09:35:32;100371.81;;;12.48;81.39
70833;BME280;58452;59.418;17.962;2022-10-16T09:37:58;100372.44;;;12.74;81.86
70833;BME280;58452;59.418;17.962;2022-10-16T09:40:36;100374.91;;;12.60;81.14
70833;BME280;58452;59.418;17.962;2022-10-16T09:46:06;100375.72;;;12.60;82.11
70833;BME280;58452;59.418;17.962;2022-10-16T09:48:44;100376.38;;;12.54;81.11
70833;BME280;58452;59.418;17.962;2022-10-16T09:51:36;100379.78;;;12.47;81.41
70833;BME280;58452;59.418;17.962;2022-10-16T09:56:35;100370.53;;;12.77;81.80
70833;BME280;58452;59.418;17.962;2022-10-16T09:59:12;100371.78;;;12.81;81.79
70833;BME280;58452;59.418;17.962;2022-10-16T10:01:46;100367.59;;;12.88;81.33
70833;BME280;58452;59.418;17.962;2022-10-16T10:04:12;100366.56;;;12.97;80.31
70833;BME280;58452;59.418;17.962;2022-10-16T10:06:45;100357.84;;;12.98;79.01
70833;BME280;58452;59.418;17.962;2022-10-16T10:09:23;100360.91;;;13.09;78.11
70833;BME280;58452;59.418;17.962;2022-10-16T10:12:44;100365.09;;;13.18;78.09
70833;BME280;58452;59.418;17.962;2022-10-16T10:14:38;100365.94;;;12.95;76.39
70833;BME280;58452;59.418;17.962;2022-10-16T10:19:58;100367.19;;;13.07;75.45
70833;BME280;58452;59.418;17.962;2022-10-16T10:25:00;100385.69;;;12.96;75.99
70833;BME280;58452;59.418;17.962;2022-10-16T10:38:39;100376.28;;;13.03;76.11
70833;BME280;58452;59.418;17.962;2022-10-16T10:46:41;100372.59;;;12.89;75.90
70833;BME280;58452;59.418;17.962;2022-10-16T10:49:16;100372.72;;;13.04;76.32
70833;BME280;58452;59.418;17.962;2022-10-16T10:57:02;100361.88;;;13.00;75.08
70833;BME280;58452;59.418;17.962;2022-10-16T11:02:09;100356.47;;;13.26;75.22
70833;BME280;58452;59.418;17.962;2022-10-16T11:07:59;100354.78;;;13.41;74.27
70833;BME280;58452;59.418;17.962;2022-10-16T11:11:03;100354.75;;;13.49;73.95
70833;BME280;58452;59.418;17.962;2022-10-16T11:19:11;100352.28;;;13.87;72.86
70833;BME280;58452;59.418;17.962;2022-10-16T11:21:46;100357.31;;;14.11;73.24
70833;BME280;58452;59.418;17.962;2022-10-16T11:24:21;100343.09;;;14.22;70.95
70833;BME280;58452;59.418;17.962;2022-10-16T11:26:49;100335.94;;;14.24;71.78
70833;BME280;58452;59.418;17.962;2022-10-16T11:29:26;100344.22;;;14.27;71.07
70833;BME280;58452;59.418;17.962;2022-10-16T11:31:58;100328.91;;;14.32;69.56
70833;BME280;58452;59.418;17.962;2022-10-16T11:34:35;100334.34;;;14.45;68.94
70833;BME280;58452;59.418;17.962;2022-10-16T11:37:24;100333.69;;;14.43;69.54
70833;BME280;58452;59.418;17.962;2022-10-16T11:39:54;100334.50;;;14.21;69.25
70833;BME280;58452;59.418;17.962;2022-10-16T11:42:30;100326.38;;;14.24;68.05
70833;BME280;58452;59.418;17.962;2022-10-16T11:47:39;100318.50;;;14.32;68.73
70833;BME280;58452;59.418;17.962;2022-10-16T11:55:42;100312.13;;;14.20;69.62
70833;BME280;58452;59.418;17.962;2022-10-16T11:58:41;100311.44;;;14.26;69.91
70833;BME280;58452;59.418;17.962;2022-10-16T12:01:38;100292.56;;;14.32;69.85
70833;BME280;58452;59.418;17.962;2022-10-16T12:04:14;100293.22;;;14.34;68.54
70833;BME280;58452;59.418;17.962;2022-10-16T12:07:18;100285.97;;;14.44;69.05
70833;BME280;58452;59.418;17.962;2022-10-16T12:09:38;100272.56;;;14.55;68.16
70833;BME280;58452;59.418;17.962;2022-10-16T12:12:05;100272.13;;;14.52;68.09
70833;BME280;58452;59.418;17.962;2022-10-16T12:14:48;100273.25;;;14.49;68.49
70833;BME280;58452;59.418;17.962;2022-10-16T12:19:57;100269.78;;;14.57;68.48
70833;BME280;58452;59.418;17.962;2022-10-16T12:22:28;100266.66;;;14.61;69.97
70833;BME280;58452;59.418;17.962;2022-10-16T12:24:55;100271.31;;;14.51;68.43
70833;BME280;58452;59.418;17.962;2022-10-16T12:27:33;100265.13;;;14.52;68.50
70833;BME280;58452;59.418;17.962;2022-10-16T12:30:01;100259.38;;;14.42;68.10
70833;BME280;58452;59.418;17.962;2022-10-16T12:32:28;100258.25;;;14.22;69.78
70833;BME280;58452;59.418;17.962;2022-10-16T12:34:54;100263.38;;;14.30;69.16
70833;BME280;58452;59.418;17.962;2022-10-16T12:37:40;100263.22;;;14.46;69.20
70833;BME280;58452;59.418;17.962;2022-10-16T12:40:26;100256.56;;;14.29;69.02
70833;BME280;58452;59.418;17.962;2022-10-16T12:42:52;100257.81;;;14.33;70.12
70833;BME280;58452;59.418;17.962;2022-10-16T12:45:31;100251.94;;;14.39;69.83
70833;BME280;58452;59.418;17.962;2022-10-16T12:47:58;100246.31;;;14.36;70.49
70833;BME280;58452;59.418;17.962;2022-10-16T12:52:52;100230.00;;;14.27;70.49
70833;BME280;58452;59.418;17.962;2022-10-16T12:55:20;100226.78;;;14.40;70.15
70833;BME280;58452;59.418;17.962;2022-10-16T13:00:44;100226.88;;;14.46;70.64
70833;BME280;58452;59.418;17.962;2022-10-16T13:11:52;100206.88;;;14.32;70.72
70833;BME280;58452;59.418;17.962;2022-10-16T13:17:17;100199.94;;;14.47;71.44
70833;BME280;58452;59.418;17.962;2022-10-16T13:25:20;100185.22;;;14.69;69.96
70833;BME280;58452;59.418;17.962;2022-10-16T13:30:18;100184.72;;;14.59;69.32
70833;BME280;58452;59.418;17.962;2022-10-16T13:32:50;100178.19;;;14.48;69.47
70833;BME280;58452;59.418;17.962;2022-10-16T13:35:23;100179.94;;;14.33;69.66
70833;BME280;58452;59.418;17.962;2022-10-16T13:37:49;100175.69;;;14.40;69.22
70833;BME280;58452;59.418;17.962;2022-10-16T13:42:45;100165.09;;;14.27;70.04
70833;BME280;58452;59.418;17.962;2022-10-16T13:45:19;100161.88;;;14.25;69.83
70833;BME280;58452;59.418;17.962;2022-10-16T13:47:44;100151.63;;;14.09;69.72
70833;BME280;58452;59.418;17.962;2022-10-16T13:50:12;100148.34;;;14.15;70.82
70833;BME280;58452;59.418;17.962;2022-10-16T13:52:39;100136.19;;;14.15;70.26
70833;BME280;58452;59.418;17.962;2022-10-16T13:55:24;100136.06;;;14.09;71.01
70833;BME280;58452;59.418;17.962;2022-10-16T13:57:50;100160.50;;;13.85;71.84
70833;BME280;58452;59.418;17.962;2022-10-16T14:00:23;100183.06;;;13.39;77.16
70833;BME280;58452;59.418;17.962;2022-10-16T14:02:57;100205.66;;;12.61;80.69
70833;BME280;58452;59.418;17.962;2022-10-16T14:05:24;100208.25;;;12.92;81.29
70833;BME280;58452;59.418;17.962;2022-10-16T14:07:51;100202.69;;;13.03;80.46
70833;BME280;58452;59.418;17.962;2022-10-16T14:10:24;100202.41;;;12.98;80.61
70833;BME280;58452;59.418;17.962;2022-10-16T14:13:01;100195.44;;;12.67;81.97
70833;BME280;58452;59.418;17.962;2022-10-16T14:15:29;100203.78;;;12.78;81.81
70833;BME280;58452;59.418;17.962;2022-10-16T14:17:55;100206.31;;;12.94;81.66
70833;BME280;58452;59.418;17.962;2022-10-16T14:20:25;100198.97;;;13.05;81.13
70833;BME280;58452;59.418;17.962;2022-10-16T14:23:04;100186.66;;;13.07;80.82
70833;BME280;58452;59.418;17.962;2022-10-16T14:25:43;100183.53;;;13.20;80.54
70833;BME280;58452;59.418;17.962;2022-10-16T14:28:20;100180.72;;;13.30;79.98
70833;BME280;58452;59.418;17.962;2022-10-16T14:30:52;100179.53;;;13.32;78.67
70833;BME280;58452;59.418;17.962;2022-10-16T14:33:24;100171.25;;;13.37;78.74
70833;BME280;58452;59.418;17.962;2022-10-16T14:36:03;100182.44;;;13.37;79.00
70833;BME280;58452;59.418;17.962;2022-10-16T14:38:30;100195.09;;;13.32;78.99
70833;BME280;58452;59.418;17.962;2022-10-16T14:40:58;100177.25;;;13.37;78.57